sensor_id;sensor_type;location;lat;lon;timestamp;P1;durP1;ratioP1;P2;durP2;ratioP2
56736;SDS011;42618;51.226;4.910;2023-04-24T00:01:06;14.77;;;7.25;;
56736;SDS011;42618;51.226;4.910;2023-04-24T00:03:34;17.30;;;8.70;;
56736;SDS011;42618;51.226;4.910;2023-04-24T00:06:01;15.25;;;7.30;;
56736;SDS011;42618;51.226;4.910;2023-04-24T00:08:29;9.43;;;5.80;;
56736;SDS011;42618;51.226;4.910;2023-04-24T00:10:56;17.98;;;8.57;;
56736;SDS011;42618;51.226;4.910;2023-04-24T00:13:23;13.77;;;6.68;;
56736;SDS011;42618;51.226;4.910;2023-04-24T00:15:50;18.73;;;8.07;;
56736;SDS011;42618;51.226;4.910;2023-04-24T00:18:16;19.60;;;8.32;;
56736;SDS011;42618;51.226;4.910;2023-04-24T00:20:43;8.73;;;5.17;;
56736;SDS011;42618;51.226;4.910;2023-04-24T00:23:10;13.05;;;7.57;;
56736;SDS011;42618;51.226;4.910;2023-04-24T00:25:37;20.83;;;9.40;;
56736;SDS011;42618;51.226;4.910;2023-04-24T00:28:04;12.45;;;6.90;;
56736;SDS011;42618;51.226;4.910;2023-04-24T00:30:31;17.60;;;8.73;;
56736;SDS011;42618;51.226;4.910;2023-04-24T00:32:58;10.75;;;5.32;;
56736;SDS011;42618;51.226;4.910;2023-04-24T00:35:25;18.40;;;9.50;;
56736;SDS011;42618;51.226;4.910;2023-04-24T00:37:51;24.48;;;10.48;;
56736;SDS011;42618;51.226;4.910;2023-04-24T00:40:18;13.95;;;8.48;;
56736;SDS011;42618;51.226;4.910;2023-04-24T00:42:45;13.77;;;6.85;;
56736;SDS011;42618;51.226;4.910;2023-04-24T00:45:12;19.77;;;11.05;;
56736;SDS011;42618;51.226;4.910;2023-04-24T00:47:39;17.65;;;10.07;;
56736;SDS011;42618;51.226;4.910;2023-04-24T00:50:08;14.50;;;8.02;;
56736;SDS011;42618;51.226;4.910;2023-04-24T00:52:35;29.42;;;11.93;;
56736;SDS011;42618;51.226;4.910;2023-04-24T00:55:02;15.20;;;8.68;;
56736;SDS011;42618;51.226;4.910;2023-04-24T00:57:29;21.13;;;11.45;;
56736;SDS011;42618;51.226;4.910;2023-04-24T00:59:56;26.17;;;12.80;;
56736;SDS011;42618;51.226;4.910;2023-04-24T01:02:24;23.23;;;10.88;;
56736;SDS011;42618;51.226;4.910;2023-04-24T01:07:19;12.90;;;6.25;;
56736;SDS011;42618;51.226;4.910;2023-04-24T01:09:50;24.20;;;12.90;;
56736;SDS011;42618;51.226;4.910;2023-04-24T01:12:18;20.65;;;8.68;;
56736;SDS011;42618;51.226;4.910;2023-04-24T01:14:45;12.82;;;8.00;;
56736;SDS011;42618;51.226;4.910;2023-04-24T01:17:14;20.48;;;11.70;;
56736;SDS011;42618;51.226;4.910;2023-04-24T01:19:42;28.70;;;12.68;;
56736;SDS011;42618;51.226;4.910;2023-04-24T01:22:12;24.30;;;10.88;;
56736;SDS011;42618;51.226;4.910;2023-04-24T01:24:41;34.00;;;12.43;;
56736;SDS011;42618;51.226;4.910;2023-04-24T01:27:11;22.38;;;11.75;;
56736;SDS011;42618;51.226;4.910;2023-04-24T01:29:38;21.73;;;11.00;;
56736;SDS011;42618;51.226;4.910;2023-04-24T01:32:06;17.98;;;9.57;;
56736;SDS011;42618;51.226;4.910;2023-04-24T01:34:33;19.58;;;10.43;;
56736;SDS011;42618;51.226;4.910;2023-04-24T01:37:00;22.60;;;12.55;;
56736;SDS011;42618;51.226;4.910;2023-04-24T01:39:27;26.67;;;13.30;;
56736;SDS011;42618;51.226;4.910;2023-04-24T01:41:55;23.27;;;12.55;;
56736;SDS011;42618;51.226;4.910;2023-04-24T01:44:22;19.00;;;10.55;;
56736;SDS011;42618;51.226;4.910;2023-04-24T01:46:49;24.23;;;12.40;;
56736;SDS011;42618;51.226;4.910;2023-04-24T01:49:17;27.80;;;11.40;;
56736;SDS011;42618;51.226;4.910;2023-04-24T01:51:44;23.50;;;12.17;;
56736;SDS011;42618;51.226;4.910;2023-04-24T01:54:11;16.73;;;9.45;;
56736;SDS011;42618;51.226;4.910;2023-04-24T01:56:41;17.20;;;11.15;;
56736;SDS011;42618;51.226;4.910;2023-04-24T01:59:10;26.92;;;11.98;;
56736;SDS011;42618;51.226;4.910;2023-04-24T02:01:37;20.27;;;9.77;;
56736;SDS011;42618;51.226;4.910;2023-04-24T02:04:06;19.52;;;8.65;;
56736;SDS011;42618;51.226;4.910;2023-04-24T02:06:34;12.00;;;5.03;;
56736;SDS011;42618;51.226;4.910;2023-04-24T02:09:01;12.45;;;8.13;;
56736;SDS011;42618;51.226;4.910;2023-04-24T02:11:29;16.98;;;9.73;;
56736;SDS011;42618;51.226;4.910;2023-04-24T02:13:56;20.43;;;9.50;;
56736;SDS011;42618;51.226;4.910;2023-04-24T02:16:23;21.60;;;9.90;;
56736;SDS011;42618;51.226;4.910;2023-04-24T02:18:51;21.50;;;10.32;;
56736;SDS011;42618;51.226;4.910;2023-04-24T02:21:17;23.00;;;11.23;;
56736;SDS011;42618;51.226;4.910;2023-04-24T02:23:44;12.82;;;7.75;;
56736;SDS011;42618;51.226;4.910;2023-04-24T02:26:12;20.77;;;10.43;;
56736;SDS011;42618;51.226;4.910;2023-04-24T02:28:39;16.65;;;8.85;;
56736;SDS011;42618;51.226;4.910;2023-04-24T02:31:06;18.63;;;9.38;;
56736;SDS011;42618;51.226;4.910;2023-04-24T02:33:33;18.48;;;8.80;;
56736;SDS011;42618;51.226;4.910;2023-04-24T02:36:00;16.90;;;8.80;;
56736;SDS011;42618;51.226;4.910;2023-04-24T02:38:26;20.30;;;10.05;;
56736;SDS011;42618;51.226;4.910;2023-04-24T02:40:53;13.98;;;8.50;;
56736;SDS011;42618;51.226;4.910;2023-04-24T02:43:20;9.98;;;6.70;;
56736;SDS011;42618;51.226;4.910;2023-04-24T02:45:47;15.33;;;8.27;;
56736;SDS011;42618;51.226;4.910;2023-04-24T02:48:15;10.48;;;6.55;;
56736;SDS011;42618;51.226;4.910;2023-04-24T02:50:42;13.75;;;6.85;;
56736;SDS011;42618;51.226;4.910;2023-04-24T02:53:08;17.17;;;8.82;;
56736;SDS011;42618;51.226;4.910;2023-04-24T02:55:35;20.20;;;9.32;;
56736;SDS011;42618;51.226;4.910;2023-04-24T02:58:02;20.58;;;9.07;;
56736;SDS011;42618;51.226;4.910;2023-04-24T03:00:29;9.90;;;5.47;;
56736;SDS011;42618;51.226;4.910;2023-04-24T03:02:56;17.10;;;8.68;;
56736;SDS011;42618;51.226;4.910;2023-04-24T03:05:23;14.75;;;9.15;;
56736;SDS011;42618;51.226;4.910;2023-04-24T03:07:50;11.53;;;8.07;;
56736;SDS011;42618;51.226;4.910;2023-04-24T03:10:20;14.95;;;8.38;;
56736;SDS011;42618;51.226;4.910;2023-04-24T03:12:49;13.40;;;7.75;;
56736;SDS011;42618;51.226;4.910;2023-04-24T03:15:17;10.48;;;6.90;;
56736;SDS011;42618;51.226;4.910;2023-04-24T03:17:44;14.13;;;7.87;;
56736;SDS011;42618;51.226;4.910;2023-04-24T03:20:11;10.77;;;6.90;;
56736;SDS011;42618;51.226;4.910;2023-04-24T03:22:38;7.55;;;4.05;;
56736;SDS011;42618;51.226;4.910;2023-04-24T03:25:07;16.70;;;7.22;;
56736;SDS011;42618;51.226;4.910;2023-04-24T03:27:36;14.70;;;6.75;;
56736;SDS011;42618;51.226;4.910;2023-04-24T03:30:16;12.38;;;7.43;;
56736;SDS011;42618;51.226;4.910;2023-04-24T03:32:48;6.75;;;4.97;;
56736;SDS011;42618;51.226;4.910;2023-04-24T03:35:20;6.40;;;4.25;;
56736;SDS011;42618;51.226;4.910;2023-04-24T03:37:49;12.43;;;6.10;;
56736;SDS011;42618;51.226;4.910;2023-04-24T03:40:41;7.88;;;4.60;;
56736;SDS011;42618;51.226;4.910;2023-04-24T03:43:34;8.70;;;4.95;;
56736;SDS011;42618;51.226;4.910;2023-04-24T03:46:01;9.57;;;4.93;;
56736;SDS011;42618;51.226;4.910;2023-04-24T03:48:33;10.07;;;6.05;;
56736;SDS011;42618;51.226;4.910;2023-04-24T03:51:00;7.70;;;4.80;;
56736;SDS011;42618;51.226;4.910;2023-04-24T03:53:29;14.43;;;8.10;;
56736;SDS011;42618;51.226;4.910;2023-04-24T03:55:56;9.65;;;5.32;;
56736;SDS011;42618;51.226;4.910;2023-04-24T03:58:23;7.05;;;3.85;;
56736;SDS011;42618;51.226;4.910;2023-04-24T04:00:52;12.70;;;5.47;;
56736;SDS011;42618;51.226;4.910;2023-04-24T04:03:38;11.13;;;6.53;;
56736;SDS011;42618;51.226;4.910;2023-04-24T04:06:05;15.25;;;8.40;;
56736;SDS011;42618;51.226;4.910;2023-04-24T04:08:32;14.00;;;8.48;;
56736;SDS011;42618;51.226;4.910;2023-04-24T04:10:59;10.43;;;5.72;;
56736;SDS011;42618;51.226;4.910;2023-04-24T04:13:27;12.90;;;6.78;;
56736;SDS011;42618;51.226;4.910;2023-04-24T04:15:54;12.27;;;6.65;;
56736;SDS011;42618;51.226;4.910;2023-04-24T04:18:21;11.65;;;5.65;;
56736;SDS011;42618;51.226;4.910;2023-04-24T04:20:48;8.18;;;5.82;;
56736;SDS011;42618;51.226;4.910;2023-04-24T04:23:16;9.07;;;5.60;;
56736;SDS011;42618;51.226;4.910;2023-04-24T04:26:02;8.85;;;5.20;;
56736;SDS011;42618;51.226;4.910;2023-04-24T04:28:43;5.72;;;3.97;;
56736;SDS011;42618;51.226;4.910;2023-04-24T04:31:11;9.63;;;5.38;;
56736;SDS011;42618;51.226;4.910;2023-04-24T04:33:38;6.72;;;3.92;;
56736;SDS011;42618;51.226;4.910;2023-04-24T04:36:07;5.90;;;2.95;;
56736;SDS011;42618;51.226;4.910;2023-04-24T04:38:38;5.10;;;3.33;;
56736;SDS011;42618;51.226;4.910;2023-04-24T04:41:20;3.80;;;3.05;;
56736;SDS011;42618;51.226;4.910;2023-04-24T04:43:47;2.95;;;2.38;;
56736;SDS011;42618;51.226;4.910;2023-04-24T04:48:49;2.50;;;2.10;;
56736;SDS011;42618;51.226;4.910;2023-04-24T04:51:15;4.93;;;2.65;;
56736;SDS011;42618;51.226;4.910;2023-04-24T04:53:43;5.13;;;2.92;;
56736;SDS011;42618;51.226;4.910;2023-04-24T04:56:10;3.65;;;2.33;;
56736;SDS011;42618;51.226;4.910;2023-04-24T04:58:43;3.45;;;2.75;;
56736;SDS011;42618;51.226;4.910;2023-04-24T05:01:13;7.63;;;3.47;;
56736;SDS011;42618;51.226;4.910;2023-04-24T05:03:44;7.22;;;3.83;;
56736;SDS011;42618;51.226;4.910;2023-04-24T05:06:13;5.35;;;3.33;;
56736;SDS011;42618;51.226;4.910;2023-04-24T05:08:43;7.10;;;4.65;;
56736;SDS011;42618;51.226;4.910;2023-04-24T05:11:21;7.00;;;4.32;;
56736;SDS011;42618;51.226;4.910;2023-04-24T05:13:48;7.22;;;4.57;;
56736;SDS011;42618;51.226;4.910;2023-04-24T05:16:18;7.05;;;3.20;;
56736;SDS011;42618;51.226;4.910;2023-04-24T05:18:47;4.15;;;3.10;;
56736;SDS011;42618;51.226;4.910;2023-04-24T05:21:18;7.28;;;3.63;;
56736;SDS011;42618;51.226;4.910;2023-04-24T05:23:48;6.43;;;3.42;;
56736;SDS011;42618;51.226;4.910;2023-04-24T05:26:24;3.40;;;2.35;;
56736;SDS011;42618;51.226;4.910;2023-04-24T05:28:51;4.57;;;2.65;;
56736;SDS011;42618;51.226;4.910;2023-04-24T05:31:17;5.03;;;3.03;;
56736;SDS011;42618;51.226;4.910;2023-04-24T05:33:44;8.02;;;3.30;;
56736;SDS011;42618;51.226;4.910;2023-04-24T05:36:11;6.47;;;3.83;;
56736;SDS011;42618;51.226;4.910;2023-04-24T05:38:38;8.73;;;4.53;;
56736;SDS011;42618;51.226;4.910;2023-04-24T05:41:05;10.93;;;5.13;;
56736;SDS011;42618;51.226;4.910;2023-04-24T05:43:31;6.32;;;3.83;;
56736;SDS011;42618;51.226;4.910;2023-04-24T05:45:58;9.25;;;4.65;;
56736;SDS011;42618;51.226;4.910;2023-04-24T05:48:25;10.40;;;4.90;;
56736;SDS011;42618;51.226;4.910;2023-04-24T05:50:52;10.02;;;4.50;;
56736;SDS011;42618;51.226;4.910;2023-04-24T05:53:19;10.57;;;5.55;;
56736;SDS011;42618;51.226;4.910;2023-04-24T05:55:46;14.77;;;7.40;;
56736;SDS011;42618;51.226;4.910;2023-04-24T05:58:13;16.73;;;5.00;;
56736;SDS011;42618;51.226;4.910;2023-04-24T06:00:41;13.55;;;6.35;;
56736;SDS011;42618;51.226;4.910;2023-04-24T06:05:36;15.35;;;5.15;;
56736;SDS011;42618;51.226;4.910;2023-04-24T06:08:03;8.37;;;4.40;;
56736;SDS011;42618;51.226;4.910;2023-04-24T06:10:34;7.97;;;5.30;;
56736;SDS011;42618;51.226;4.910;2023-04-24T06:13:02;10.32;;;6.28;;
56736;SDS011;42618;51.226;4.910;2023-04-24T06:15:30;12.90;;;5.75;;
56736;SDS011;42618;51.226;4.910;2023-04-24T06:18:05;9.48;;;5.10;;
56736;SDS011;42618;51.226;4.910;2023-04-24T06:20:33;8.60;;;4.65;;
56736;SDS011;42618;51.226;4.910;2023-04-24T06:23:01;9.50;;;4.53;;
56736;SDS011;42618;51.226;4.910;2023-04-24T06:25:28;7.40;;;4.03;;
56736;SDS011;42618;51.226;4.910;2023-04-24T06:27:55;8.52;;;3.85;;
56736;SDS011;42618;51.226;4.910;2023-04-24T06:30:22;10.35;;;3.63;;
56736;SDS011;42618;51.226;4.910;2023-04-24T06:32:50;7.57;;;4.15;;
56736;SDS011;42618;51.226;4.910;2023-04-24T06:35:17;8.43;;;3.83;;
56736;SDS011;42618;51.226;4.910;2023-04-24T06:37:43;8.43;;;4.18;;
56736;SDS011;42618;51.226;4.910;2023-04-24T06:40:10;9.05;;;4.07;;
56736;SDS011;42618;51.226;4.910;2023-04-24T06:42:37;8.35;;;2.67;;
56736;SDS011;42618;51.226;4.910;2023-04-24T06:45:07;9.00;;;4.43;;
56736;SDS011;42618;51.226;4.910;2023-04-24T06:47:34;8.52;;;3.80;;
56736;SDS011;42618;51.226;4.910;2023-04-24T06:50:00;11.32;;;4.82;;
56736;SDS011;42618;51.226;4.910;2023-04-24T06:52:27;9.57;;;3.78;;
56736;SDS011;42618;51.226;4.910;2023-04-24T06:54:59;11.98;;;4.32;;
56736;SDS011;42618;51.226;4.910;2023-04-24T06:57:27;8.20;;;3.97;;
56736;SDS011;42618;51.226;4.910;2023-04-24T06:59:54;7.05;;;3.30;;
56736;SDS011;42618;51.226;4.910;2023-04-24T07:02:21;12.23;;;4.68;;
56736;SDS011;42618;51.226;4.910;2023-04-24T07:04:48;7.40;;;3.90;;
56736;SDS011;42618;51.226;4.910;2023-04-24T07:07:14;8.23;;;4.10;;
56736;SDS011;42618;51.226;4.910;2023-04-24T07:09:42;6.25;;;3.60;;
56736;SDS011;42618;51.226;4.910;2023-04-24T07:12:09;6.93;;;4.30;;
56736;SDS011;42618;51.226;4.910;2023-04-24T07:14:36;7.28;;;2.85;;
56736;SDS011;42618;51.226;4.910;2023-04-24T07:17:04;14.45;;;4.97;;
56736;SDS011;42618;51.226;4.910;2023-04-24T07:19:35;9.55;;;3.70;;
56736;SDS011;42618;51.226;4.910;2023-04-24T07:22:01;9.85;;;3.75;;
56736;SDS011;42618;51.226;4.910;2023-04-24T07:24:30;12.50;;;3.83;;
56736;SDS011;42618;51.226;4.910;2023-04-24T07:26:58;9.77;;;3.22;;
56736;SDS011;42618;51.226;4.910;2023-04-24T07:29:27;9.75;;;4.05;;
56736;SDS011;42618;51.226;4.910;2023-04-24T07:31:54;11.82;;;4.47;;
56736;SDS011;42618;51.226;4.910;2023-04-24T07:34:20;9.45;;;4.50;;
56736;SDS011;42618;51.226;4.910;2023-04-24T07:36:47;12.88;;;4.57;;
56736;SDS011;42618;51.226;4.910;2023-04-24T07:39:14;10.27;;;4.03;;
56736;SDS011;42618;51.226;4.910;2023-04-24T07:41:41;12.00;;;4.80;;
56736;SDS011;42618;51.226;4.910;2023-04-24T07:44:07;15.05;;;5.60;;
56736;SDS011;42618;51.226;4.910;2023-04-24T07:46:34;13.48;;;6.28;;
56736;SDS011;42618;51.226;4.910;2023-04-24T07:49:01;8.52;;;5.15;;
56736;SDS011;42618;51.226;4.910;2023-04-24T07:54:06;5.30;;;2.35;;
56736;SDS011;42618;51.226;4.910;2023-04-24T07:56:33;7.68;;;3.10;;
56736;SDS011;42618;51.226;4.910;2023-04-24T07:59:00;9.65;;;3.03;;
56736;SDS011;42618;51.226;4.910;2023-04-24T08:01:27;8.15;;;2.50;;
56736;SDS011;42618;51.226;4.910;2023-04-24T08:03:54;12.95;;;3.15;;
56736;SDS011;42618;51.226;4.910;2023-04-24T08:06:22;11.02;;;2.95;;
56736;SDS011;42618;51.226;4.910;2023-04-24T08:08:49;12.55;;;3.30;;
56736;SDS011;42618;51.226;4.910;2023-04-24T08:11:17;3.97;;;1.95;;
56736;SDS011;42618;51.226;4.910;2023-04-24T08:13:44;7.85;;;2.38;;
56736;SDS011;42618;51.226;4.910;2023-04-24T08:16:11;5.55;;;1.92;;
56736;SDS011;42618;51.226;4.910;2023-04-24T08:18:38;18.85;;;2.45;;
56736;SDS011;42618;51.226;4.910;2023-04-24T08:21:05;19.63;;;5.90;;
56736;SDS011;42618;51.226;4.910;2023-04-24T08:23:31;7.90;;;2.22;;
56736;SDS011;42618;51.226;4.910;2023-04-24T08:25:58;10.38;;;2.47;;
56736;SDS011;42618;51.226;4.910;2023-04-24T08:28:25;11.67;;;5.07;;
56736;SDS011;42618;51.226;4.910;2023-04-24T08:30:52;11.57;;;3.97;;
56736;SDS011;42618;51.226;4.910;2023-04-24T08:33:22;20.45;;;8.93;;
56736;SDS011;42618;51.226;4.910;2023-04-24T08:35:49;20.67;;;8.35;;
56736;SDS011;42618;51.226;4.910;2023-04-24T08:38:16;62.33;;;21.47;;
56736;SDS011;42618;51.226;4.910;2023-04-24T08:40:43;41.03;;;14.25;;
56736;SDS011;42618;51.226;4.910;2023-04-24T08:43:12;13.55;;;4.03;;
56736;SDS011;42618;51.226;4.910;2023-04-24T08:45:40;11.45;;;3.35;;
56736;SDS011;42618;51.226;4.910;2023-04-24T08:48:07;11.65;;;2.35;;
56736;SDS011;42618;51.226;4.910;2023-04-24T08:50:53;26.70;;;9.25;;
56736;SDS011;42618;51.226;4.910;2023-04-24T08:53:20;36.35;;;12.45;;
56736;SDS011;42618;51.226;4.910;2023-04-24T08:55:48;30.37;;;8.13;;
56736;SDS011;42618;51.226;4.910;2023-04-24T08:58:15;22.10;;;6.88;;
56736;SDS011;42618;51.226;4.910;2023-04-24T09:00:44;24.25;;;7.00;;
56736;SDS011;42618;51.226;4.910;2023-04-24T09:03:16;12.20;;;4.25;;
56736;SDS011;42618;51.226;4.910;2023-04-24T09:05:44;14.52;;;3.60;;
56736;SDS011;42618;51.226;4.910;2023-04-24T09:08:13;15.85;;;4.93;;
56736;SDS011;42618;51.226;4.910;2023-04-24T09:10:40;12.80;;;1.90;;
56736;SDS011;42618;51.226;4.910;2023-04-24T09:13:07;9.05;;;2.92;;
56736;SDS011;42618;51.226;4.910;2023-04-24T09:15:38;9.55;;;2.20;;
56736;SDS011;42618;51.226;4.910;2023-04-24T09:18:06;10.27;;;2.58;;
56736;SDS011;42618;51.226;4.910;2023-04-24T09:20:33;12.40;;;2.63;;
56736;SDS011;42618;51.226;4.910;2023-04-24T09:23:02;10.90;;;2.60;;
56736;SDS011;42618;51.226;4.910;2023-04-24T09:25:32;39.72;;;11.80;;
56736;SDS011;42618;51.226;4.910;2023-04-24T09:28:02;10.50;;;3.20;;
56736;SDS011;42618;51.226;4.910;2023-04-24T09:30:30;11.40;;;1.85;;
56736;SDS011;42618;51.226;4.910;2023-04-24T09:33:15;9.80;;;1.85;;
56736;SDS011;42618;51.226;4.910;2023-04-24T09:35:43;7.38;;;1.90;;
56736;SDS011;42618;51.226;4.910;2023-04-24T09:38:16;8.32;;;2.25;;
56736;SDS011;42618;51.226;4.910;2023-04-24T09:40:43;11.05;;;2.00;;
56736;SDS011;42618;51.226;4.910;2023-04-24T09:43:10;11.55;;;2.22;;
56736;SDS011;42618;51.226;4.910;2023-04-24T09:45:38;10.80;;;2.30;;
56736;SDS011;42618;51.226;4.910;2023-04-24T09:48:09;10.88;;;1.80;;
56736;SDS011;42618;51.226;4.910;2023-04-24T09:50:36;7.65;;;1.92;;
56736;SDS011;42618;51.226;4.910;2023-04-24T09:53:04;9.35;;;1.65;;
56736;SDS011;42618;51.226;4.910;2023-04-24T09:55:38;7.32;;;2.20;;
56736;SDS011;42618;51.226;4.910;2023-04-24T09:58:07;8.75;;;1.70;;
56736;SDS011;42618;51.226;4.910;2023-04-24T10:00:34;5.32;;;1.23;;
56736;SDS011;42618;51.226;4.910;2023-04-24T10:03:02;6.43;;;1.38;;
56736;SDS011;42618;51.226;4.910;2023-04-24T10:05:34;9.15;;;1.60;;
56736;SDS011;42618;51.226;4.910;2023-04-24T10:08:09;2.42;;;0.90;;
56736;SDS011;42618;51.226;4.910;2023-04-24T10:10:40;5.22;;;1.17;;
56736;SDS011;42618;51.226;4.910;2023-04-24T10:13:09;5.60;;;1.20;;
56736;SDS011;42618;51.226;4.910;2023-04-24T10:15:37;5.07;;;1.27;;
56736;SDS011;42618;51.226;4.910;2023-04-24T10:18:05;6.03;;;1.23;;
56736;SDS011;42618;51.226;4.910;2023-04-24T10:20:35;11.32;;;6.00;;
56736;SDS011;42618;51.226;4.910;2023-04-24T10:23:04;2.45;;;1.33;;
56736;SDS011;42618;51.226;4.910;2023-04-24T10:25:32;6.55;;;2.00;;
56736;SDS011;42618;51.226;4.910;2023-04-24T10:28:01;3.95;;;1.10;;
56736;SDS011;42618;51.226;4.910;2023-04-24T10:30:32;7.40;;;1.95;;
56736;SDS011;42618;51.226;4.910;2023-04-24T10:33:04;10.73;;;2.38;;
56736;SDS011;42618;51.226;4.910;2023-04-24T10:35:38;4.78;;;2.00;;
56736;SDS011;42618;51.226;4.910;2023-04-24T10:38:09;5.28;;;1.73;;
56736;SDS011;42618;51.226;4.910;2023-04-24T10:40:38;7.57;;;1.20;;
56736;SDS011;42618;51.226;4.910;2023-04-24T10:43:06;6.18;;;1.33;;
56736;SDS011;42618;51.226;4.910;2023-04-24T10:45:37;3.10;;;0.80;;
56736;SDS011;42618;51.226;4.910;2023-04-24T10:48:06;4.40;;;1.70;;
56736;SDS011;42618;51.226;4.910;2023-04-24T10:50:46;5.10;;;1.23;;
56736;SDS011;42618;51.226;4.910;2023-04-24T10:53:18;10.00;;;1.00;;
56736;SDS011;42618;51.226;4.910;2023-04-24T10:58:40;4.20;;;0.90;;
56736;SDS011;42618;51.226;4.910;2023-04-24T11:01:27;5.57;;;0.80;;
56736;SDS011;42618;51.226;4.910;2023-04-24T11:03:57;3.65;;;1.00;;
56736;SDS011;42618;51.226;4.910;2023-04-24T11:06:29;5.25;;;1.55;;
56736;SDS011;42618;51.226;4.910;2023-04-24T11:09:05;3.40;;;0.80;;
56736;SDS011;42618;51.226;4.910;2023-04-24T11:11:42;6.15;;;0.73;;
56736;SDS011;42618;51.226;4.910;2023-04-24T11:14:14;5.13;;;0.90;;
56736;SDS011;42618;51.226;4.910;2023-04-24T11:16:45;2.90;;;0.85;;
56736;SDS011;42618;51.226;4.910;2023-04-24T11:19:21;1.58;;;0.77;;
56736;SDS011;42618;51.226;4.910;2023-04-24T11:27:15;5.15;;;2.13;;
56736;SDS011;42618;51.226;4.910;2023-04-24T11:29:48;3.97;;;1.00;;
56736;SDS011;42618;51.226;4.910;2023-04-24T11:37:37;3.50;;;1.42;;
56736;SDS011;42618;51.226;4.910;2023-04-24T11:40:06;4.55;;;1.02;;
56736;SDS011;42618;51.226;4.910;2023-04-24T11:42:35;4.43;;;1.15;;
56736;SDS011;42618;51.226;4.910;2023-04-24T11:45:07;4.00;;;1.60;;
56736;SDS011;42618;51.226;4.910;2023-04-24T11:47:35;4.00;;;1.02;;
56736;SDS011;42618;51.226;4.910;2023-04-24T11:50:04;2.72;;;0.70;;
56736;SDS011;42618;51.226;4.910;2023-04-24T11:52:33;3.25;;;0.70;;
56736;SDS011;42618;51.226;4.910;2023-04-24T11:55:03;5.55;;;1.30;;
56736;SDS011;42618;51.226;4.910;2023-04-24T11:57:32;7.85;;;1.95;;
56736;SDS011;42618;51.226;4.910;2023-04-24T12:00:01;11.35;;;2.13;;
56736;SDS011;42618;51.226;4.910;2023-04-24T12:02:37;4.03;;;1.00;;
56736;SDS011;42618;51.226;4.910;2023-04-24T12:05:05;3.03;;;0.75;;
56736;SDS011;42618;51.226;4.910;2023-04-24T12:07:39;2.30;;;0.85;;
56736;SDS011;42618;51.226;4.910;2023-04-24T12:10:10;6.95;;;1.85;;
56736;SDS011;42618;51.226;4.910;2023-04-24T12:12:37;30.15;;;13.10;;
56736;SDS011;42618;51.226;4.910;2023-04-24T12:15:07;22.15;;;10.52;;
56736;SDS011;42618;51.226;4.910;2023-04-24T12:17:35;9.02;;;4.68;;
56736;SDS011;42618;51.226;4.910;2023-04-24T12:20:06;7.97;;;3.65;;
56736;SDS011;42618;51.226;4.910;2023-04-24T12:23:07;2.00;;;0.70;;
56736;SDS011;42618;51.226;4.910;2023-04-24T12:25:28;5.10;;;0.98;;
56736;SDS011;42618;51.226;4.910;2023-04-24T12:30:34;5.32;;;0.70;;
56736;SDS011;42618;51.226;4.910;2023-04-24T12:33:04;4.18;;;1.58;;
56736;SDS011;42618;51.226;4.910;2023-04-24T12:35:32;1.45;;;0.70;;
56736;SDS011;42618;51.226;4.910;2023-04-24T12:38:10;2.70;;;0.63;;
56736;SDS011;42618;51.226;4.910;2023-04-24T12:40:41;4.97;;;0.70;;
56736;SDS011;42618;51.226;4.910;2023-04-24T12:43:15;4.43;;;0.80;;
56736;SDS011;42618;51.226;4.910;2023-04-24T12:45:43;3.10;;;0.65;;
56736;SDS011;42618;51.226;4.910;2023-04-24T12:48:14;4.90;;;0.85;;
56736;SDS011;42618;51.226;4.910;2023-04-24T12:50:42;4.23;;;1.20;;
56736;SDS011;42618;51.226;4.910;2023-04-24T12:53:12;5.18;;;0.90;;
56736;SDS011;42618;51.226;4.910;2023-04-24T12:55:39;4.55;;;0.57;;
56736;SDS011;42618;51.226;4.910;2023-04-24T12:58:06;3.93;;;0.77;;
56736;SDS011;42618;51.226;4.910;2023-04-24T13:00:33;5.97;;;0.52;;
56736;SDS011;42618;51.226;4.910;2023-04-24T13:03:01;2.53;;;0.47;;
56736;SDS011;42618;51.226;4.910;2023-04-24T13:05:28;1.35;;;0.32;;
56736;SDS011;42618;51.226;4.910;2023-04-24T13:07:55;1.42;;;0.60;;
56736;SDS011;42618;51.226;4.910;2023-04-24T13:12:50;1.50;;;0.60;;
56736;SDS011;42618;51.226;4.910;2023-04-24T13:15:16;1.10;;;0.55;;
56736;SDS011;42618;51.226;4.910;2023-04-24T13:17:43;3.38;;;0.90;;
56736;SDS011;42618;51.226;4.910;2023-04-24T13:20:10;1.63;;;0.65;;
56736;SDS011;42618;51.226;4.910;2023-04-24T13:22:37;2.95;;;0.60;;
56736;SDS011;42618;51.226;4.910;2023-04-24T13:25:03;3.05;;;0.50;;
56736;SDS011;42618;51.226;4.910;2023-04-24T13:27:32;2.05;;;0.60;;
56736;SDS011;42618;51.226;4.910;2023-04-24T13:29:59;3.40;;;1.00;;
56736;SDS011;42618;51.226;4.910;2023-04-24T13:32:26;1.25;;;0.70;;
56736;SDS011;42618;51.226;4.910;2023-04-24T13:34:54;2.22;;;0.70;;
56736;SDS011;42618;51.226;4.910;2023-04-24T13:37:20;2.03;;;0.80;;
56736;SDS011;42618;51.226;4.910;2023-04-24T13:39:48;3.70;;;0.80;;
56736;SDS011;42618;51.226;4.910;2023-04-24T13:42:16;2.53;;;0.75;;
56736;SDS011;42618;51.226;4.910;2023-04-24T13:44:43;1.40;;;0.77;;
56736;SDS011;42618;51.226;4.910;2023-04-24T13:47:09;2.92;;;0.68;;
56736;SDS011;42618;51.226;4.910;2023-04-24T13:49:36;1.92;;;0.60;;
56736;SDS011;42618;51.226;4.910;2023-04-24T13:52:03;1.75;;;0.65;;
56736;SDS011;42618;51.226;4.910;2023-04-24T13:54:30;14.63;;;7.18;;
56736;SDS011;42618;51.226;4.910;2023-04-24T13:56:57;17.55;;;7.90;;
56736;SDS011;42618;51.226;4.910;2023-04-24T13:59:24;15.77;;;8.35;;
56736;SDS011;42618;51.226;4.910;2023-04-24T14:01:52;3.17;;;0.88;;
56736;SDS011;42618;51.226;4.910;2023-04-24T14:04:19;4.18;;;1.80;;
56736;SDS011;42618;51.226;4.910;2023-04-24T14:06:46;3.00;;;1.60;;
56736;SDS011;42618;51.226;4.910;2023-04-24T14:09:13;10.30;;;2.50;;
56736;SDS011;42618;51.226;4.910;2023-04-24T14:11:40;3.72;;;0.95;;
56736;SDS011;42618;51.226;4.910;2023-04-24T14:14:07;2.97;;;0.60;;
56736;SDS011;42618;51.226;4.910;2023-04-24T14:16:34;0.73;;;0.38;;
56736;SDS011;42618;51.226;4.910;2023-04-24T14:19:01;4.60;;;0.80;;
56736;SDS011;42618;51.226;4.910;2023-04-24T14:21:28;1.47;;;0.40;;
56736;SDS011;42618;51.226;4.910;2023-04-24T14:23:55;4.00;;;0.90;;
56736;SDS011;42618;51.226;4.910;2023-04-24T14:26:22;1.58;;;0.50;;
56736;SDS011;42618;51.226;4.910;2023-04-24T14:28:49;3.67;;;1.20;;
56736;SDS011;42618;51.226;4.910;2023-04-24T14:31:17;5.25;;;0.80;;
56736;SDS011;42618;51.226;4.910;2023-04-24T14:33:44;3.35;;;0.63;;
56736;SDS011;42618;51.226;4.910;2023-04-24T14:36:12;2.63;;;0.43;;
56736;SDS011;42618;51.226;4.910;2023-04-24T14:38:39;2.97;;;0.80;;
56736;SDS011;42618;51.226;4.910;2023-04-24T14:41:06;5.10;;;0.70;;
56736;SDS011;42618;51.226;4.910;2023-04-24T14:43:39;3.17;;;0.70;;
56736;SDS011;42618;51.226;4.910;2023-04-24T14:46:06;4.37;;;0.90;;
56736;SDS011;42618;51.226;4.910;2023-04-24T14:48:33;3.00;;;0.80;;
56736;SDS011;42618;51.226;4.910;2023-04-24T14:51:00;4.50;;;1.20;;
56736;SDS011;42618;51.226;4.910;2023-04-24T14:53:26;4.78;;;1.20;;
56736;SDS011;42618;51.226;4.910;2023-04-24T14:55:53;1.95;;;1.02;;
56736;SDS011;42618;51.226;4.910;2023-04-24T14:58:20;4.15;;;1.25;;
56736;SDS011;42618;51.226;4.910;2023-04-24T15:00:47;5.25;;;1.67;;
56736;SDS011;42618;51.226;4.910;2023-04-24T15:03:19;9.60;;;1.85;;
56736;SDS011;42618;51.226;4.910;2023-04-24T15:05:47;3.15;;;1.30;;
56736;SDS011;42618;51.226;4.910;2023-04-24T15:08:14;2.97;;;1.70;;
56736;SDS011;42618;51.226;4.910;2023-04-24T15:10:41;6.22;;;1.17;;
56736;SDS011;42618;51.226;4.910;2023-04-24T15:13:08;4.75;;;2.38;;
56736;SDS011;42618;51.226;4.910;2023-04-24T15:15:35;5.22;;;2.40;;
56736;SDS011;42618;51.226;4.910;2023-04-24T15:18:02;7.68;;;3.55;;